Terminal Aerodrome Forecast
Issued by NWS

Home | Current Version | Previous Version | Text Only | Print | Product List | Glossary On
Versions: 1 2 3 4 5 6 7 8 9 10 11 12
915
FTUS42 TJSJ 041140
TAFJPS
TAF
TJPS 041140Z 0412/0512 05005KT P6SM FEW030
     FM041330 13010KT P6SM VCSH FEW030 SCT050
     FM041700 16012KT P6SM VCTS SCT025CB BKN050
     FM042300 VRB03KT P6SM FEW030
      AMD NOT SKED TIL 050300=

USA.gov is the U.S. government's official web portal to all federal, state and local government web resources and services.